Tiempo atmosférico en la estación meteorológica de Valderredible, Polientes, Cantabria (720 m.)



Fecha
DESCASC
Temp. máxima en grados centígrados (hora)
DESCASC
Temp. mínima en grados centígrados (hora)
DESCASC
Temp. media en grados centígrados
DESCASC
Racha de viento máxima en m/sg (hora)
DESCASC
Velocidad máxima media en intervalos de 10 minutos(hora)
DESCASC
Precipitaciones diarias en mm
DESCASC
Precipitaciones de 00:00 a 06:00 en mm
DESCASC
Precipitaciones de 06:00 a 12:00 en mm
DESCASC
Precipitaciones de 12:00 a 18:00 en mm
DESCASC
Precipitaciones de 18:00 a 24:00 en mm
DESCASC
13-06-2019 24.3 (16:30) 6.9 (07:20) 15.6 10.28 (15:50) 5 (15:50) 0 0 0 0 0
12-06-2019 19.6 (16:40) 1.5 (05:40) 10.6 9.17 (19:00) 3.89 (19:00) 0 0 0 0 0
11-06-2019 15.3 (14:40) 4.9 (23:59) 10.1 9.17 (18:20) 3.89 (18:20) 1.8 1.8 0 0 0
10-06-2019 16.3 (16:40) 7 (07:10) 11.6 8.61 (18:50) 3.33 (18:30) 1.7 0 0 0 1.7
09-06-2019 18.8 (14:40) 9.2 (00:00) 14 9.72 (18:30) 4.17 (17:40) 3.7 0 0 0 3.7
08-06-2019 23.5 (16:40) 2.6 (00:00) 13 8.61 (17:40) 3.89 (17:10) 0 0 0 0 0
07-06-2019 17.8 (15:30) 5.6 (00:00) 11.7 12.78 (00:30) 6.39 (07:00) 1.4 1.4 0 0 0
06-06-2019 20.9 (18:40) 4.4 (00:00) 12.6 16.11 (23:20) 7.5 (17:00) 5.1 0 0 0 5.1
05-06-2019 13.7 (12:10) 6.9 (00:00) 10.3 8.06 (15:50) 3.33 (15:10) 27.2 13.6 5.8 7 0.8
04-06-2019 23.8 (16:10) 7.5 (00:00) 15.6 10 (12:20) 5.28 (13:10) 3 0 0 0 3
03-06-2019 29.7 (17:40) 8.3 (00:00) 19 9.17 (19:40) 4.17 (16:40) 0 0 0 0 0
02-06-2019 31 (17:10) 8.8 (00:00) 19.9 10 (15:20) 5.28 (15:30) 0 0 0 0 0
01-06-2019 32.9 (17:20) 5.9 (00:00) 19.4 8.61 (15:10) 2.78 (19:40) 0 0 0 0 0
31-05-2019 30.9 (16:40) 4.6 (00:00) 17.7 6.11 (17:40) 2.22 (17:40) 0 0 0 0 0
30-05-2019 28.1 (17:50) 3.3 (00:00) 15.7 7.78 (19:10) 3.61 (19:10) 0 0 0 0 0
29-05-2019 20 (16:40) 4.6 (00:00) 12.3 7.5 (15:30) 3.89 (14:50) 0 0 0 0 0
28-05-2019 17.2 (16:30) 7.8 (00:00) 12.5 9.44 (18:20) 4.44 (15:20) 0 0 0 0 0
27-05-2019 19.2 (13:40) 8.2 (00:00) 13.7 11.39 (20:00) 4.72 (18:50) 0 0 0 0 0
26-05-2019 18.2 (16:30) 8.9 (00:00) 13.6 9.44 (15:40) 3.89 (12:30) 0 0 0 0 0
25-05-2019 17.5 (16:00) 8.2 (00:00) 12.8 10 (14:10) 3.89 (18:00) 0 0 0 0 0
24-05-2019 16.8 (13:30) 6.5 (00:00) 11.6 11.11 (13:10) 4.17 (13:10) 0 0 0 0 0
23-05-2019 21.4 (14:10) 5.3 (00:00) 13.3 9.44 (20:40) 4.17 (14:30) 0.4 0 0 0 0.4
22-05-2019 25.6 (16:30) 3 (00:00) 14.3 7.22 (19:10) 3.33 (18:20) 0 0 0 0 0
21-05-2019 21 (15:50) 3.4 (04:00) 12.2 8.61 (19:00) 3.89 (17:40) 0 0 0 0 0
20-05-2019 19.6 (17:00) 1 (06:40) 10.3 7.78 (19:50) 3.61 (19:10) 0 0 0 0 0
19-05-2019 13.8 (15:20) 4.6 (00:00) 9.2 9.17 (17:30) 4.17 (19:00) 0.4 0 0 0.4 0
18-05-2019 11.9 (12:50) 0.8 (00:00) 6.3 6.39 (17:40) 3.33 (17:10) 0.5 0 0 0.4 0.1
17-05-2019 12.6 (17:30) 4.5 (00:00) 8.6 10 (08:20) 3.89 (15:40) 2.4 2.3 0.1 0 0

Gráficas

Temp. máximas Temp. mínimas Temp. medias Precipitaciones Rachas de viento máximas Velocidades máximas media en intervalos de 10 minutos

Datos horarios

Fecha y hora oficial Temperatura (ºC) Velocidad del viento (km/h) Dirección del viento Racha (km/h) Dirección de racha Precipitación (mm) Presión (hPa) Tendencia (hPa) Humedad (%)
2019-06-15 23:00:00 11.3 3 Nordeste 18 Nordeste 0 -- -- 72
2019-06-15 22:00:00 11.6 7 Nordeste 16 Nordeste 0 -- -- 71
2019-06-15 21:00:00 12.3 3 Este 19 Nordeste 0 -- -- 67
2019-06-15 20:00:00 14.3 6 Nordeste 30 Nordeste 0 -- -- 59
2019-06-15 19:00:00 17.2 10 Nordeste 30 Nordeste 0 -- -- 52
2019-06-15 18:00:00 19.4 10 Nordeste 29 Nordeste 0 -- -- 44
2019-06-15 17:00:00 21.9 4 Sur 16 Sudoeste 0 -- -- 31
2019-06-15 16:00:00 20.1 5 Sudoeste 16 Sudoeste 0 -- -- 32
2019-06-15 15:00:00 19 2 Sur 10 Oeste 0 -- -- 35
2019-06-15 14:00:00 18.2 4 Sudoeste 11 Sudoeste 0 -- -- 37
2019-06-15 13:00:00 17.2 4 Sur 10 Sudoeste 0 -- -- 38
2019-06-15 12:00:00 17.2 3 Sudeste 14 Sudeste 0 -- -- 45
2019-06-15 11:00:00 15.5 3 Este 10 Este 0 -- -- 51
2019-06-15 10:00:00 13.2 0 Calma 7 Sudoeste 0 -- -- 62
2019-06-15 09:00:00 10.2 3 Sudoeste 7 Oeste 0 -- -- 84
2019-06-15 08:00:00 8.6 0 Calma 4 Sudoeste 0 -- -- 95
2019-06-15 07:00:00 8.5 0 Calma 3 Oeste 0 -- -- 95
2019-06-15 06:00:00 8.4 0 Calma 3 Nordeste 0 -- -- 95
2019-06-15 05:00:00 8.2 0 Calma 2 Nordeste 0 -- -- 94
2019-06-15 04:00:00 8.2 0 Calma 5 Oeste 0 -- -- 94
2019-06-15 03:00:00 8.3 0 Calma 3 Sudoeste 0 -- -- 92
2019-06-15 02:00:00 8.6 0 Calma 3 Noroeste 0 -- -- 92
2019-06-15 01:00:00 9.2 0 Calma 3 Nordeste 0 -- -- 92
2019-06-15 00:00:00 9.5 0 Calma 12 Nordeste 0 -- -- 91
2019-06-14 23:00:00 9.3 0 Calma 15 Este 0 -- -- 90
2019-06-14 22:00:00 10.7 5 Nordeste 25 Este 0 -- -- 82
2019-06-14 21:00:00 12 5 Nordeste 24 Nordeste 0 -- -- 81
2019-06-14 20:00:00 12.7 5 Nordeste 26 Nordeste 0 -- -- 76
2019-06-14 19:00:00 13.3 8 Nordeste 30 Nordeste 0 -- -- 74
2019-06-14 18:00:00 14.9 10 Nordeste 32 Nordeste 0 -- -- 66
2019-06-14 17:00:00 17.1 12 Nordeste 35 Nordeste 0 -- -- 60
2019-06-14 16:00:00 19.4 12 Nordeste 32 Nordeste 0 -- -- 54
2019-06-14 15:00:00 19.2 12 Nordeste 31 Nordeste 0 -- -- 51
2019-06-14 14:00:00 20.6 7 Nordeste 19 Nordeste 0 -- -- 49
2019-06-14 13:00:00 19.2 5 Nordeste 13 Este 0 -- -- 49
2019-06-14 12:00:00 17.3 5 Este 13 Este 0 -- -- 57
2019-06-14 11:00:00 14.9 4 Este 12 Este 0 -- -- 66
2019-06-14 10:00:00 11.7 0 Calma 8 Este 0 -- -- 80
2019-06-14 09:00:00 10.3 0 Calma 4 Oeste 0 -- -- 88
2019-06-14 08:00:00 9.6 0 Calma 5 Sudoeste 0 -- -- 89
2019-06-14 07:00:00 9.3 3 Sudoeste 6 Sudoeste 0 -- -- 88
2019-06-14 06:00:00 9.5 2 Sudoeste 6 Sudoeste 0 -- -- 88
2019-06-14 05:00:00 9.8 0 Calma 3 Este 0 -- -- 87
2019-06-14 04:00:00 9.9 0 Calma -- -- 0 -- -- 88
2019-06-14 03:00:00 10 0 Calma 6 Nordeste 0 -- -- 88
2019-06-14 02:00:00 10.2 0 Calma 8 Nordeste 0 -- -- 86
2019-06-14 01:00:00 10.3 0 Calma 15 Nordeste 0 -- -- 85
2019-06-14 00:00:00 10.2 4 Nordeste 23 Este 0 -- -- 86
2019-06-13 23:00:00 10.3 5 Nordeste 26 Nordeste 0 -- -- 85
2019-06-13 22:00:00 10.5 10 Nordeste 26 Sudeste 0 -- -- 83
2019-06-13 21:00:00 11.3 7 Nordeste 25 Nordeste 0 -- -- 79
2019-06-13 20:00:00 12.3 8 Nordeste 36 Nordeste 0 -- -- 76
2019-06-13 19:00:00 13.2 10 Nordeste 36 Nordeste 0 -- -- 70
2019-06-13 18:00:00 16.4 13 Nordeste 35 Nordeste 0 -- -- 60
2019-06-13 17:00:00 19.6 15 Nordeste 37 Nordeste 0 -- -- 47
2019-06-13 16:00:00 23.6 13 Sudoeste 37 Sudoeste 0 -- -- 20
2019-06-13 15:00:00 22.1 12 Sudoeste 30 Sudoeste 0 -- -- 24
2019-06-13 14:00:00 21.2 8 Sudoeste 34 Sudoeste 0 -- -- 28
2019-06-13 13:00:00 18.9 4 Este 14 Nordeste 0 -- -- 47
2019-06-13 12:00:00 16.1 3 Nordeste 14 Nordeste 0 -- -- 56
2019-06-13 11:00:00 13.5 3 Este 11 Nordeste 0 -- -- 63
2019-06-13 10:00:00 10.7 2 Nordeste 12 Nordeste 0 -- -- 75
2019-06-13 09:00:00 9 2 Nordeste 12 Nordeste 0 -- -- 81
2019-06-13 08:00:00 8 2 Nordeste 11 Nordeste 0 -- -- 88
2019-06-13 07:00:00 7.3 3 Nordeste 7 Nordeste 0 -- -- 88
2019-06-13 06:00:00 8.7 0 Calma 11 Nordeste 0 -- -- 83
2019-06-13 05:00:00 8.7 3 Nordeste 8 Nordeste 0 -- -- 83
2019-06-13 04:00:00 8.4 0 Calma 6 Este 0 -- -- 83
2019-06-13 03:00:00 8.4 2 Este 7 Este 0 -- -- 83
2019-06-13 02:00:00 8.4 2 Este 9 Este 0 -- -- 82
2019-06-13 01:00:00 8.6 4 Este 17 Nordeste 0 -- -- 82
2019-06-13 00:00:00 9.2 6 Este 18 Este 0 -- -- 81
2019-06-12 23:00:00 9.5 5 Nordeste 17 Nordeste 0 -- -- 80
2019-06-12 22:00:00 9.5 4 Nordeste 23 Este 0 -- -- 80
2019-06-12 21:00:00 10.2 8 Nordeste 31 Nordeste 0 -- -- 74
2019-06-12 20:00:00 12.7 10 Nordeste 33 Norte 0 -- -- 61
2019-06-12 19:00:00 14.3 14 Nordeste 33 Nordeste 0 -- -- 51
2019-06-12 18:00:00 17.1 9 Nordeste 29 Norte 0 -- -- 44
2019-06-12 17:00:00 16.8 7 Nordeste 23 Nordeste 0 -- -- 35
2019-06-12 16:00:00 18.8 2 Oeste 18 Sudoeste 0 -- -- 27
2019-06-12 15:00:00 17.2 3 Sudoeste 18 Sudoeste 0 -- -- 30
2019-06-12 14:00:00 16 6 Sudoeste 16 Sudoeste 0 -- -- 33
2019-06-12 13:00:00 15.8 2 Sudoeste 14 Sur 0 -- -- 36
2019-06-12 12:00:00 13.1 3 Oeste 10 Sudoeste 0 -- -- 42
2019-06-12 11:00:00 8.8 0 Calma 8 Oeste 0 -- -- 75
2019-06-12 10:00:00 4.9 0 Calma 8 Oeste 0 -- -- 96
2019-06-12 09:00:00 3.4 2 Sudoeste 8 Sudoeste 0 -- -- 96
2019-06-12 08:00:00 2.6 0 Calma 4 Noroeste 0 -- -- 96
2019-06-12 07:00:00 2.1 0 Calma 3 Sudoeste 0 -- -- 96
2019-06-12 06:00:00 2 0 Calma 5 Sudoeste 0 -- -- 96
2019-06-12 05:00:00 1.9 0 Calma 3 Nordeste 0 -- -- 95
2019-06-12 04:00:00 2.1 0 Calma 0 Calma 0 -- -- 95
2019-06-12 03:00:00 2.8 0 Calma 3 Norte 0 -- -- 93
2019-06-12 02:00:00 3.4 0 Calma 4 Norte 0 -- -- 92
2019-06-12 01:00:00 4 0 Calma 6 Noroeste 0 -- -- 92
2019-06-12 00:00:00 5 0 Calma 6 Noroeste 0 -- -- 90
2019-06-11 23:00:00 6.3 0 Calma 7 Nordeste 0 -- -- 86
2019-06-11 22:00:00 8.6 4 Nordeste 13 Nordeste 0 -- -- 74
2019-06-11 21:00:00 9.9 4 Nordeste 22 Norte 0 -- -- 64
2019-06-11 20:00:00 12.1 4 Nordeste 32 Nordeste 0 -- -- 51
2019-06-11 19:00:00 13.4 6 Nordeste 33 Nordeste 0 -- -- 47
2019-06-11 18:00:00 13 6 Norte 28 Nordeste 0 -- -- 46
2019-06-11 17:00:00 14.2 4 Norte 20 Nordeste 0 -- -- 47
2019-06-11 16:00:00 12.7 3 Noroeste 27 Nordeste 0 -- -- 51
2019-06-11 15:00:00 13.6 4 Norte 26 Nordeste 0 -- -- 51
2019-06-11 14:00:00 13.3 4 Norte 21 Norte 0 -- -- 50
2019-06-11 13:00:00 11.3 4 Norte 24 Nordeste 0 -- -- 51
2019-06-11 12:00:00 11.2 3 Norte 30 Nordeste 0 -- -- 53
2019-06-11 11:00:00 9.8 5 Nordeste 19 Nordeste 0 -- -- 61
2019-06-11 10:00:00 9.7 3 Nordeste 17 Nordeste 0 -- -- 69
2019-06-11 09:00:00 7.6 3 Nordeste 15 Nordeste 0 -- -- 87
2019-06-11 08:00:00 6.2 0 Calma 8 Norte 0 -- -- 93
2019-06-11 07:00:00 6.2 3 Nordeste 13 Nordeste 0 -- -- 91
2019-06-11 06:00:00 6.9 3 Nordeste 12 Nordeste 0 -- -- 93
2019-06-11 05:00:00 6.5 6 Nordeste 16 Nordeste 0 -- -- 93
2019-06-11 04:00:00 6.5 0 Calma 7 Norte 0 -- -- 94
2019-06-11 03:00:00 7.2 0 Calma 5 Nordeste 0 -- -- 94
2019-06-11 02:00:00 7.5 2 Nordeste 9 Nordeste 0.1 -- -- 94
2019-06-11 01:00:00 7.4 0 Calma 10 Nordeste 1.7 -- -- 93
2019-06-11 00:00:00 7.5 0 Calma 13 Nordeste 1.2 -- -- 92
2019-06-10 23:00:00 7.6 0 Calma 15 Nordeste 0.1 -- -- 89
2019-06-10 22:00:00 7.7 4 Nordeste 21 Nordeste 0.2 -- -- 88
2019-06-10 21:00:00 8.2 5 Nordeste 20 Este 0.2 -- -- 88
2019-06-10 20:00:00 9.3 6 Nordeste 23 Nordeste 0 -- -- 84
2019-06-10 19:00:00 10 8 Nordeste 31 Nordeste 0 -- -- 82
2019-06-10 18:00:00 11.9 7 Nordeste 26 Nordeste 0 -- -- 63
2019-06-10 17:00:00 13.4 8 Nordeste 24 Nordeste 0 -- -- 52
2019-06-10 16:00:00 13.9 4 Nordeste 18 Nordeste 0 -- -- 54
2019-06-10 15:00:00 14.8 2 Norte 11 Nordeste 0 -- -- 51
2019-06-10 14:00:00 13.6 0 Calma 14 Nordeste 0 -- -- 52
2019-06-10 13:00:00 13 4 Este 13 Nordeste 0 -- -- 60
2019-06-10 12:00:00 11.6 2 Nordeste 10 Nordeste 0 -- -- 66
2019-06-10 11:00:00 10.7 3 Nordeste 12 Este 0 -- -- 74
2019-06-10 10:00:00 9.5 3 Nordeste 11 Nordeste 0 -- -- 83
2019-06-10 09:00:00 8.6 0 Calma 9 Sudeste 0 -- -- 87
2019-06-10 08:00:00 7.6 0 Calma 4 Nordeste 0 -- -- 94
2019-06-10 07:00:00 7.2 0 Calma 9 Nordeste 0 -- -- 94
2019-06-10 06:00:00 8.4 0 Calma 5 Sudeste 0 -- -- 95
2019-06-10 05:00:00 8.3 0 Calma -- -- 0 -- -- 94
2019-06-10 04:00:00 8.5 0 Calma -- -- 0 -- -- 94
2019-06-10 03:00:00 8.5 0 Calma 9 Nordeste 0 -- -- 94
2019-06-10 02:00:00 8.6 4 Nordeste 24 Nordeste 0 -- -- 93
2019-06-10 01:00:00 8.9 8 Nordeste 21 Nordeste 0 -- -- 94
2019-06-10 00:00:00 9.3 0 Calma 7 Este 1.5 -- -- 93
2019-06-09 23:00:00 9.5 2 Sudeste 20 Nordeste 2.2 -- -- 93
2019-06-09 22:00:00 9.7 9 Nordeste 29 Nordeste 0 -- -- 86
2019-06-09 21:00:00 10.1 8 Nordeste 32 Nordeste 0 -- -- 85
2019-06-09 20:00:00 10.8 12 Nordeste 32 Nordeste 0 -- -- 81
2019-06-09 19:00:00 12.1 10 Nordeste 35 Nordeste 0 -- -- 77
2019-06-09 18:00:00 12.6 9 Nordeste 33 Nordeste 0 -- -- 75
2019-06-09 17:00:00 13.1 8 Nordeste 33 Nordeste 0 -- -- 78
2019-06-09 16:00:00 14.6 12 Nordeste 31 Norte 0 -- -- 63
2019-06-09 15:00:00 17.3 10 Nordeste 25 Nordeste 0 -- -- 55
2019-06-09 14:00:00 16.9 7 Nordeste 20 Este 0 -- -- 56
2019-06-09 13:00:00 16.3 6 Nordeste 15 Nordeste 0 -- -- 61
2019-06-09 12:00:00 13.7 3 Nordeste 12 Nordeste 0 -- -- 67
2019-06-09 11:00:00 13 0 Calma 10 Este 0 -- -- 69
2019-06-09 10:00:00 12.4 4 Nordeste 10 Nordeste 0 -- -- 74
2019-06-09 09:00:00 11.5 0 Calma 7 Nordeste 0 -- -- 80
2019-06-09 08:00:00 10.7 3 Nordeste 8 Nordeste 0 -- -- 83
2019-06-09 07:00:00 10.5 0 Calma 11 Nordeste 0 -- -- 82
2019-06-09 06:00:00 10.3 2 Nordeste 9 Nordeste 0 -- -- 81
2019-06-09 05:00:00 10.5 3 Nordeste 12 Nordeste 0 -- -- 84
2019-06-09 04:00:00 10.5 3 Nordeste 15 Nordeste 0 -- -- 86
2019-06-09 03:00:00 10.5 4 Nordeste 15 Nordeste 0 -- -- 86
2019-06-09 02:00:00 10.3 4 Nordeste 21 Este 0 -- -- 88
2019-06-09 01:00:00 10.1 6 Nordeste 18 Nordeste 0 -- -- 88
2019-06-09 00:00:00 10.7 3 Nordeste 18 Nordeste 0 -- -- 84
2019-06-08 23:00:00 11 0 Calma 21 Nordeste 0 -- -- 81
2019-06-08 22:00:00 11.2 4 Nordeste 14 Nordeste 0 -- -- 82
2019-06-08 21:00:00 12.1 5 Nordeste 14 Nordeste 0 -- -- 78
2019-06-08 20:00:00 13.4 6 Nordeste 19 Nordeste 0 -- -- 72
2019-06-08 19:00:00 15.2 5 Nordeste 30 Este 0 -- -- 61
2019-06-08 18:00:00 17.4 12 Nordeste 31 Nordeste 0 -- -- 50
2019-06-08 17:00:00 20.9 6 Nordeste 29 Nordeste 0 -- -- 34
2019-06-08 16:00:00 22 4 Nordeste 19 Nordeste 0 -- -- 32
2019-06-08 15:00:00 21.1 5 Nordeste 20 Nordeste 0 -- -- 36
2019-06-08 14:00:00 20 6 Nordeste 19 Nordeste 0 -- -- 39
2019-06-08 13:00:00 17.3 3 Nordeste 15 Nordeste 0 -- -- 43
2019-06-08 12:00:00 15.3 4 Nordeste 14 Este 0 -- -- 48
2019-06-08 11:00:00 13.3 5 Nordeste 15 Este 0 -- -- 58
2019-06-08 10:00:00 7.2 0 Calma 6 Sur 0 -- -- 94
2019-06-08 09:00:00 5 0 Calma 6 Sudoeste 0 -- -- 96
2019-06-08 08:00:00 4.1 0 Calma -- -- 0 -- -- 96
2019-06-08 07:00:00 3.1 0 Calma -- -- 0 -- -- 96
2019-06-08 06:00:00 2.9 0 Calma -- -- 0 -- -- 95
2019-06-08 05:00:00 3.2 0 Calma -- -- 0 -- -- 95
2019-06-08 04:00:00 4.1 0 Calma -- -- 0 -- -- 95
2019-06-08 03:00:00 3.5 0 Calma 3 Nordeste 0 -- -- 94
2019-06-08 02:00:00 4 0 Calma 4 Oeste 0 -- -- 94
2019-06-08 01:00:00 4.6 0 Calma 3 Norte 0 -- -- 92
2019-06-08 00:00:00 5.6 0 Calma 6 Nordeste 0 -- -- 91
2019-06-07 23:00:00 7.3 0 Calma 13 Nordeste 0 -- -- 84
2019-06-07 22:00:00 8.6 4 Nordeste 19 Nordeste 0 -- -- 74
2019-06-07 21:00:00 10.2 7 Nordeste 23 Nordeste 0 -- -- 65
2019-06-07 20:00:00 12.1 10 Nordeste 26 Norte 0 -- -- 57
2019-06-07 19:00:00 13.6 11 Nordeste 26 Nordeste 0 -- -- 55
2019-06-07 18:00:00 13.8 9 Nordeste 25 Nordeste 0 -- -- 54
2019-06-07 17:00:00 13.9 8 Nordeste 27 Nordeste 0 -- -- 49
2019-06-07 16:00:00 14.6 10 Nordeste 38 Sudoeste 0 -- -- 43
2019-06-07 15:00:00 17 17 Sudoeste 35 Sudoeste 0 -- -- 34
2019-06-07 14:00:00 16.1 17 Sudoeste 36 Sudoeste 0 -- -- 38
2019-06-07 13:00:00 14 17 Sudoeste 40 Sudoeste 0 -- -- 41
2019-06-07 12:00:00 13.8 18 Sudoeste 42 Sudoeste 0 -- -- 45
2019-06-07 11:00:00 11.7 20 Sudoeste 39 Sudoeste 0 -- -- 50
2019-06-07 10:00:00 10 17 Sudoeste 37 Sudoeste 0 -- -- 59
2019-06-07 09:00:00 9.5 20 Sudoeste 43 Sudoeste 0 -- -- 62
2019-06-07 08:00:00 8.3 16 Sudoeste 40 Sudoeste 0 -- -- 66
2019-06-07 07:00:00 8.4 23 Sudoeste 43 Oeste 0 -- -- 67
2019-06-07 06:00:00 8.3 20 Sudoeste 37 Sur 0 -- -- 71
2019-06-07 05:00:00 8.1 16 Sudoeste 34 Sudoeste 0 -- -- 75
2019-06-07 04:00:00 8.5 17 Sudoeste 37 Sudoeste 0 -- -- 74
2019-06-07 03:00:00 8.7 15 Sudoeste 41 Sudoeste 0 -- -- 76
2019-06-07 02:00:00 8.9 15 Sudoeste 46 Sudoeste 0 -- -- 83
2019-06-07 01:00:00 8.1 8 Sudoeste 46 Sudoeste 1.4 -- -- 84
2019-06-07 00:00:00 9.2 12 Sudoeste 58 Sudoeste 2.5 -- -- 86
2019-06-06 23:00:00 12.8 17 Sudoeste 32 Sudoeste 0.1 -- -- 78
2019-06-06 22:00:00 12 10 Sudoeste 37 Sudoeste 2 -- -- 86
2019-06-06 21:00:00 13.4 19 Sudoeste 46 Sudoeste 0.5 -- -- 66
2019-06-06 20:00:00 18.5 21 Sudoeste 50 Sudoeste 0 -- -- 31
2019-06-06 19:00:00 20.1 21 Sudoeste 54 Sudoeste 0 -- -- 26
2019-06-06 18:00:00 20.2 22 Sudoeste 53 Sudoeste 0 -- -- 25
2019-06-06 17:00:00 19.3 27 Sudoeste 49 Sudoeste 0 -- -- 26
2019-06-06 16:00:00 19.7 20 Sudoeste 53 Sudoeste 0 -- -- 30
2019-06-06 15:00:00 18.8 13 Sur 43 Sudoeste 0 -- -- 33
2019-06-06 14:00:00 17.6 17 Sudoeste 40 Sudoeste 0 -- -- 37
2019-06-06 13:00:00 15.7 14 Sudoeste 41 Sudoeste 0 -- -- 40
2019-06-06 12:00:00 15 12 Sudoeste 33 Sudoeste 0 -- -- 47
2019-06-06 11:00:00 10.9 4 Sudoeste 9 Sudoeste 0 -- -- 71
2019-06-06 10:00:00 7.7 3 Sudoeste 9 Oeste 0 -- -- 92
2019-06-06 09:00:00 6.4 0 Calma 6 Nordeste 0 -- -- 96
2019-06-06 08:00:00 5.7 0 Calma 7 Norte 0 -- -- 96
2019-06-06 07:00:00 4.5 0 Calma 5 Noroeste 0 -- -- 95
2019-06-06 06:00:00 5.7 0 Calma 4 Noroeste 0 -- -- 95
2019-06-06 05:00:00 5.5 0 Calma 3 Norte 0 -- -- 95
2019-06-06 04:00:00 6.7 0 Calma 3 Nordeste 0 -- -- 95
2019-06-06 03:00:00 6.9 0 Calma 4 Sudoeste 0 -- -- 95
2019-06-06 02:00:00 6.6 0 Calma 4 Noroeste 0 -- -- 94
2019-06-06 01:00:00 6.5 0 Calma -- -- 0 -- -- 93
2019-06-06 00:00:00 6.9 0 Calma 7 Este 0 -- -- 92
2019-06-05 23:00:00 7.4 0 Calma 12 Nordeste 0.8 -- -- 88
2019-06-05 22:00:00 7.7 0 Calma 13 Nordeste 0 -- -- 78
2019-06-05 21:00:00 8.6 0 Calma 23 Nordeste 0 -- -- 70
2019-06-05 20:00:00 9.2 9 Nordeste 24 Nordeste 0 -- -- 68
2019-06-05 19:00:00 10.1 7 Nordeste 29 Nordeste 0 -- -- 74
2019-06-05 18:00:00 11.2 8 Nordeste 21 Nordeste 0.7 -- -- 79
2019-06-05 17:00:00 11.7 7 Nordeste 27 Nordeste 0 -- -- 68
2019-06-05 16:00:00 11 6 Nordeste 29 Norte 0.5 -- -- 79
2019-06-05 15:00:00 9.6 8 Nordeste 28 Este 1.1 -- -- 86
2019-06-05 14:00:00 9.6 2 Este 22 Nordeste 4.7 -- -- 88
2019-06-05 13:00:00 12.9 0 Calma 18 Sudoeste 0 -- -- 66
2019-06-05 12:00:00 12.7 0 Calma 20 Nordeste 0 -- -- 67
2019-06-05 11:00:00 13 8 Nordeste 20 Este 0 -- -- 73
2019-06-05 10:00:00 9.5 0 Calma 8 Nordeste 0 -- -- 90
2019-06-05 09:00:00 8.6 0 Calma 3 Nordeste 0.3 -- -- 95
2019-06-05 08:00:00 7.9 0 Calma 5 Oeste 2.5 -- -- 95
2019-06-05 07:00:00 7.8 0 Calma 18 Nordeste 3 -- -- 94
2019-06-05 06:00:00 8 4 Nordeste 11 Nordeste 2.4 -- -- 94
2019-06-05 05:00:00 8.1 0 Calma 10 Este 4.3 -- -- 94
2019-06-05 04:00:00 8.7 0 Calma 7 Oeste 1.5 -- -- 93
2019-06-05 03:00:00 8.6 2 Nordeste 10 Nordeste 2.6 -- -- 93
2019-06-05 02:00:00 8.7 0 Calma 12 Este 2 -- -- 93
2019-06-05 01:00:00 8.8 4 Este 15 Nordeste 0.8 -- -- 92
2019-06-05 00:00:00 9.1 2 Nordeste 16 Este 2.8 -- -- 91
2019-06-04 23:00:00 9.9 3 Este 24 Nordeste 0.2 -- -- 84
2019-06-04 22:00:00 10.9 5 Nordeste 24 Nordeste 0 -- -- 78
2019-06-04 21:00:00 11.4 8 Nordeste 31 Nordeste 0 -- -- 75
2019-06-04 20:00:00 12.4 13 Nordeste 30 Nordeste 0 -- -- 70
2019-06-04 19:00:00 15 12 Nordeste 31 Nordeste 0 -- -- 62
2019-06-04 18:00:00 15.9 10 Nordeste 33 Nordeste 0 -- -- 62
2019-06-04 17:00:00 18.9 8 Nordeste 28 Sudoeste 0 -- -- 45
2019-06-04 16:00:00 23.4 12 Sudoeste 27 Sudoeste 0 -- -- 32
2019-06-04 15:00:00 22.9 12 Sudoeste 31 Sudoeste 0 -- -- 35
2019-06-04 14:00:00 20.7 14 Sudoeste 35 Sudoeste 0 -- -- 40
2019-06-04 13:00:00 19.2 17 Sudoeste 36 Sudoeste 0 -- -- 42
2019-06-04 12:00:00 19.3 17 Sudoeste 35 Oeste 0 -- -- 44
2019-06-04 11:00:00 17.7 15 Sudoeste 26 Sudoeste 0 -- -- 50
2019-06-04 10:00:00 16.2 9 Sudoeste 19 Sudoeste 0 -- -- 61
2019-06-04 09:00:00 14.4 9 Sudoeste 21 Sudoeste 0 -- -- 71
2019-06-04 08:00:00 10.8 2 Sudoeste 8 Sudoeste 0 -- -- 95
2019-06-04 07:00:00 7.9 0 Calma 7 Sudeste 0 -- -- 95
2019-06-04 06:00:00 8.3 0 Calma 4 Sudoeste 0 -- -- 95
2019-06-04 05:00:00 8.7 0 Calma 0 Calma 0 -- -- 94
2019-06-04 04:00:00 9.7 0 Calma -- -- 0 -- -- 94
2019-06-04 03:00:00 10.4 0 Calma 3 Noroeste 0 -- -- 92
2019-06-04 02:00:00 11.1 0 Calma 4 Noroeste 0 -- -- 90
2019-06-04 01:00:00 11.9 0 Calma 5 Norte 0 -- -- 88
2019-06-04 00:00:00 13.2 0 Calma 7 Nordeste 0 -- -- 86
2019-06-03 23:00:00 15.3 0 Calma 9 Nordeste 0 -- -- 83
2019-06-03 22:00:00 16.8 3 Este 20 Este 0 -- -- 76
2019-06-03 21:00:00 18.4 8 Nordeste 27 Nordeste 0 -- -- 69
2019-06-03 20:00:00 20.6 12 Nordeste 33 Nordeste 0 -- -- 61
2019-06-03 19:00:00 23 11 Nordeste 26 Nordeste 0 -- -- 52
2019-06-03 18:00:00 25.8 8 Nordeste 31 Sudoeste 0 -- -- 37
2019-06-03 17:00:00 28.6 12 Sudoeste 30 Oeste 0 -- -- 25
2019-06-03 16:00:00 27.7 11 Sudoeste 32 Sudoeste 0 -- -- 26
2019-06-03 15:00:00 27.2 9 Sudoeste 31 Sudoeste 0 -- -- 27
2019-06-03 14:00:00 26.9 10 Sudoeste 24 Sudoeste 0 -- -- 28
2019-06-03 13:00:00 25.3 4 Sudeste 9 Sudeste 0 -- -- 32
2019-06-03 12:00:00 22.8 5 Este 9 Sudeste 0 -- -- 38
2019-06-03 11:00:00 19.9 3 Este 9 Este 0 -- -- 46
2019-06-03 10:00:00 14.8 0 Calma 0 Calma 0 -- -- 68
2019-06-03 09:00:00 11 0 Calma 0 Calma 0 -- -- 88
2019-06-03 08:00:00 8.9 0 Calma 0 Calma 0 -- -- 94
2019-06-03 07:00:00 8.4 0 Calma 0 Calma 0 -- -- 94
2019-06-03 06:00:00 8.4 0 Calma -- -- 0 -- -- 94
2019-06-03 05:00:00 8.8 0 Calma -- -- 0 -- -- 92
2019-06-03 04:00:00 9.4 0 Calma -- -- 0 -- -- 92
2019-06-03 03:00:00 10.4 0 Calma -- -- 0 -- -- 91
2019-06-03 02:00:00 11 0 Calma 4 Nordeste 0 -- -- 88
2019-06-03 01:00:00 11.8 0 Calma 4 Noroeste 0 -- -- 84
2019-06-03 00:00:00 12.5 0 Calma 5 Noroeste 0 -- -- 79
2019-06-02 23:00:00 14.7 0 Calma 10 Este 0 -- -- 70
2019-06-02 22:00:00 17.2 5 Este 14 Nordeste 0 -- -- 56
2019-06-02 21:00:00 19.7 6 Nordeste 21 Nordeste 0 -- -- 43
2019-06-02 20:00:00 22.5 9 Nordeste 25 Nordeste 0 -- -- 37
2019-06-02 19:00:00 24.5 9 Nordeste 30 Este 0 -- -- 36
2019-06-02 18:00:00 26.6 14 Nordeste 32 Sudoeste 0 -- -- 30
2019-06-02 17:00:00 29.6 15 Sudoeste 32 Sudoeste 0 -- -- 16
2019-06-02 16:00:00 29.6 10 Sudoeste 36 Sudoeste 0 -- -- 20
2019-06-02 15:00:00 29 18 Sudoeste 36 Sudoeste 0 -- -- 20
2019-06-02 14:00:00 29.8 14 Sudoeste 28 Sudoeste 0 -- -- 23
2019-06-02 13:00:00 28.3 9 Sur 21 Sur 0 -- -- 27
2019-06-02 12:00:00 26.1 4 Sur 14 Sudoeste 0 -- -- 32
2019-06-02 11:00:00 23.5 0 Calma 10 Este 0 -- -- 43
2019-06-02 10:00:00 17.2 0 Calma 6 Este 0 -- -- 67
2019-06-02 09:00:00 12.4 0 Calma 5 Sudoeste 0 -- -- 91
2019-06-02 08:00:00 9.6 0 Calma 4 Sudoeste 0 -- -- 95
2019-06-02 07:00:00 8.9 0 Calma 4 Nordeste 0 -- -- 95
2019-06-02 06:00:00 9.8 0 Calma -- -- 0 -- -- 95
2019-06-02 05:00:00 10.6 0 Calma -- -- 0 -- -- 94
2019-06-02 04:00:00 11.8 0 Calma 4 Sudoeste 0 -- -- 93
2019-06-02 03:00:00 12.6 0 Calma 8 Nordeste 0 -- -- 91
2019-06-02 02:00:00 13.7 3 Norte 10 Nordeste 0 -- -- 90
2019-06-02 01:00:00 14.6 0 Calma 6 Noroeste 0 -- -- 87
2019-06-02 00:00:00 16.5 0 Calma 4 Noroeste 0 -- -- 80
2019-06-01 23:00:00 18.6 0 Calma 3 Nordeste 0 -- -- 72
2019-06-01 22:00:00 21.9 4 Nordeste 15 Nordeste 0 -- -- 58
2019-06-01 21:00:00 24.9 3 Sudeste 20 Nordeste 0 -- -- 45
2019-06-01 20:00:00 27.4 9 Nordeste 26 Nordeste 0 -- -- 35
2019-06-01 19:00:00 30.1 3 Nordeste 13 Oeste 0 -- -- 24
2019-06-01 18:00:00 31.9 8 Sudoeste 17 Sudoeste 0 -- -- 17
2019-06-01 17:00:00 32.1 4 Sudoeste 18 Sudoeste 0 -- -- 18
2019-06-01 16:00:00 31.7 5 Sudoeste 31 Sudoeste 0 -- -- 18
2019-06-01 15:00:00 31 4 Sur 18 Sudoeste 0 -- -- 19
2019-06-01 14:00:00 30.6 5 Sudoeste 17 Sudoeste 0 -- -- 20
2019-06-01 13:00:00 28.3 3 Sudeste 9 Sur 0 -- -- 28
2019-06-01 12:00:00 25.6 0 Calma 6 Sur 0 -- -- 34
2019-06-01 11:00:00 21.1 2 Sudeste 8 Sudeste 0 -- -- 43
2019-06-01 10:00:00 15.8 0 Calma 5 Sudeste 0 -- -- 59
2019-06-01 09:00:00 9.9 0 Calma -- -- 0 -- -- 88
2019-06-01 08:00:00 6.9 0 Calma -- -- 0 -- -- 94
2019-06-01 07:00:00 5.9 0 Calma -- -- 0 -- -- 94
2019-06-01 06:00:00 6.6 0 Calma -- -- 0 -- -- 93
2019-06-01 05:00:00 7.5 0 Calma -- -- 0 -- -- 93
2019-06-01 04:00:00 8.2 0 Calma -- -- 0 -- -- 92
2019-06-01 03:00:00 9.3 0 Calma -- -- 0 -- -- 89
2019-06-01 02:00:00 10.6 0 Calma -- -- 0 -- -- 85
2019-06-01 01:00:00 12.3 0 Calma -- -- 0 -- -- 76
2019-06-01 00:00:00 14.8 0 Calma 4 Noroeste 0 -- -- 62
2019-05-31 23:00:00 17 0 Calma 5 Nordeste 0 -- -- 47
2019-05-31 22:00:00 19.9 0 Calma 13 Este 0 -- -- 38
2019-05-31 21:00:00 23.2 3 Nordeste 13 Este 0 -- -- 32
2019-05-31 20:00:00 26.4 3 Norte 16 Nordeste 0 -- -- 23
2019-05-31 19:00:00 28.1 6 Nordeste 19 Nordeste 0 -- -- 21
2019-05-31 18:00:00 29.7 5 Nordeste 22 Nordeste 0 -- -- 18
2019-05-31 17:00:00 30.2 6 Nordeste 19 Nordeste 0 -- -- 19
2019-05-31 16:00:00 30.1 4 Nordeste 17 Nordeste 0 -- -- 16
2019-05-31 15:00:00 28.2 3 Nordeste 12 Nordeste 0 -- -- 19
2019-05-31 14:00:00 27.3 4 Este 14 Sudoeste 0 -- -- 23
2019-05-31 13:00:00 26.8 3 Nordeste 13 Nordeste 0 -- -- 25
2019-05-31 12:00:00 22.9 3 Sur 8 Sudeste 0 -- -- 38
2019-05-31 11:00:00 18.2 2 Sudoeste 6 Sudeste 0 -- -- 52
2019-05-31 10:00:00 12 2 Sur 7 Nordeste 0 -- -- 73
2019-05-31 09:00:00 7.5 0 Calma 3 Este 0 -- -- 96
2019-05-31 08:00:00 6 0 Calma 0 Calma 0 -- -- 96
2019-05-31 07:00:00 4.6 0 Calma 0 Calma 0 -- -- 95
2019-05-31 06:00:00 5.5 0 Calma -- -- 0 -- -- 94
2019-05-31 05:00:00 6.1 0 Calma -- -- 0 -- -- 94
2019-05-31 04:00:00 7.3 0 Calma 3 Nordeste 0 -- -- 92
2019-05-31 03:00:00 8.4 0 Calma 0 Calma 0 -- -- 92
2019-05-31 02:00:00 9.9 0 Calma 4 Sudoeste 0 -- -- 90
2019-05-31 01:00:00 11.4 0 Calma 4 Sudoeste 0 -- -- 88
2019-05-31 00:00:00 12.8 0 Calma 5 Nordeste 0 -- -- 83
2019-05-30 23:00:00 15.2 0 Calma 6 Nordeste 0 -- -- 75
2019-05-30 22:00:00 18.3 0 Calma 15 Nordeste 0 -- -- 58
2019-05-30 21:00:00 20.8 4 Nordeste 18 Nordeste 0 -- -- 46
2019-05-30 20:00:00 23.1 4 Norte 28 Nordeste 0 -- -- 42
2019-05-30 19:00:00 24.9 10 Nordeste 24 Nordeste 0 -- -- 33
2019-05-30 18:00:00 26.8 7 Nordeste 21 Nordeste 0 -- -- 27
2019-05-30 17:00:00 27.4 7 Este 24 Este 0 -- -- 28
2019-05-30 16:00:00 27.1 6 Este 21 Sudeste 0 -- -- 26
2019-05-30 15:00:00 25.9 7 Este 21 Este 0 -- -- 24
2019-05-30 14:00:00 24.8 6 Este 19 Este 0 -- -- 25
2019-05-30 13:00:00 23.7 5 Nordeste 18 Nordeste 0 -- -- 33
2019-05-30 12:00:00 20.9 5 Nordeste 13 Nordeste 0 -- -- 42
2019-05-30 11:00:00 14.6 0 Calma 8 Sudeste 0 -- -- 62
2019-05-30 10:00:00 8.7 3 Este 8 Este 0 -- -- 92
2019-05-30 09:00:00 6.5 2 Sudeste 5 Sudeste 0 -- -- 96
2019-05-30 08:00:00 4.9 0 Calma 4 Sudoeste 0 -- -- 96
2019-05-30 07:00:00 4.3 0 Calma 4 Nordeste 0 -- -- 96
2019-05-30 06:00:00 3.4 0 Calma -- -- 0 -- -- 96
2019-05-30 05:00:00 4.3 0 Calma 4 Sudoeste 0 -- -- 96
2019-05-30 04:00:00 4.7 0 Calma 3 Norte 0 -- -- 95
2019-05-30 03:00:00 5.5 2 Nordeste 6 Nordeste 0 -- -- 95
2019-05-30 02:00:00 6.6 0 Calma 5 Norte 0 -- -- 92
2019-05-30 01:00:00 8 0 Calma 5 Noroeste 0 -- -- 89
2019-05-30 00:00:00 9.5 0 Calma 7 Nordeste 0 -- -- 86
2019-05-29 23:00:00 11.3 5 Nordeste 9 Nordeste 0 -- -- 83
2019-05-29 22:00:00 13.4 3 Este 14 Nordeste 0 -- -- 71
2019-05-29 21:00:00 15.2 3 Norte 14 Noroeste 0 -- -- 59
2019-05-29 20:00:00 17.6 3 Norte 22 Nordeste 0 -- -- 48
2019-05-29 19:00:00 18.2 7 Nordeste 24 Nordeste 0 -- -- 45
2019-05-29 18:00:00 18.6 10 Nordeste 26 Nordeste 0 -- -- 44
2019-05-29 17:00:00 19.4 9 Nordeste 26 Nordeste 0 -- -- 45
2019-05-29 16:00:00 18.8 11 Nordeste 27 Nordeste 0 -- -- 46
2019-05-29 15:00:00 17.7 12 Nordeste 26 Nordeste 0 -- -- 48
2019-05-29 14:00:00 14.8 6 Nordeste 21 Nordeste 0 -- -- 55
2019-05-29 13:00:00 14 8 Nordeste 26 Nordeste 0 -- -- 57
2019-05-29 12:00:00 13.7 9 Nordeste 22 Este 0 -- -- 59
2019-05-29 11:00:00 11.7 6 Nordeste 21 Nordeste 0 -- -- 65
2019-05-29 10:00:00 10.9 5 Nordeste 17 Nordeste 0 -- -- 67
2019-05-29 09:00:00 9.3 4 Nordeste 9 Este 0 -- -- 82
2019-05-29 08:00:00 6.6 0 Calma 4 Sudoeste 0 -- -- 92
2019-05-29 07:00:00 5.8 0 Calma -- -- 0 -- -- 93
2019-05-29 06:00:00 5.1 0 Calma 4 Noroeste 0 -- -- 93
2019-05-29 05:00:00 4.6 0 Calma 7 Noroeste 0 -- -- 92
2019-05-29 04:00:00 4.9 0 Calma 6 Norte 0 -- -- 91
2019-05-29 03:00:00 6.1 0 Calma 6 Nordeste 0 -- -- 88
2019-05-29 02:00:00 8.1 3 Nordeste 14 Nordeste 0 -- -- 80
2019-05-29 01:00:00 9.3 4 Nordeste 12 Nordeste 0 -- -- 76
2019-05-29 00:00:00 9.4 4 Nordeste 17 Nordeste 0 -- -- 76
2019-05-28 23:00:00 9.4 3 Nordeste 9 Norte 0 -- -- 76
2019-05-28 22:00:00 9.6 3 Nordeste 19 Nordeste 0 -- -- 73
2019-05-28 21:00:00 10.7 0 Calma 17 Nordeste 0 -- -- 64
2019-05-28 20:00:00 11.7 5 Nordeste 29 Nordeste 0 -- -- 57
2019-05-28 19:00:00 13.5 7 Norte 34 Nordeste 0 -- -- 51
2019-05-28 18:00:00 14.3 10 Nordeste 27 Nordeste 0 -- -- 50
2019-05-28 17:00:00 14.5 11 Nordeste 32 Nordeste 0 -- -- 50
2019-05-28 16:00:00 13.7 12 Nordeste 32 Nordeste 0 -- -- 49
2019-05-28 15:00:00 14.5 11 Nordeste 27 Nordeste 0 -- -- 57
2019-05-28 14:00:00 14 10 Nordeste 24 Nordeste 0 -- -- 52
2019-05-28 13:00:00 15.4 11 Nordeste 29 Nordeste 0 -- -- 52
2019-05-28 12:00:00 12.2 9 Nordeste 22 Nordeste 0 -- -- 56
2019-05-28 11:00:00 13.4 4 Norte 17 Este 0 -- -- 53
2019-05-28 10:00:00 10.7 5 Este 18 Este 0 -- -- 71
2019-05-28 09:00:00 9.5 5 Nordeste 11 Nordeste 0 -- -- 75
2019-05-28 08:00:00 8.7 4 Este 12 Nordeste 0 -- -- 79
2019-05-28 07:00:00 8.2 2 Nordeste 14 Nordeste 0 -- -- 81
2019-05-28 06:00:00 8.4 2 Nordeste 10 Nordeste 0 -- -- 90
2019-05-28 05:00:00 8.9 0 Calma 12 Nordeste 0 -- -- 84
2019-05-28 04:00:00 9 4 Nordeste 14 Nordeste 0 -- -- 81
2019-05-28 03:00:00 9.2 6 Nordeste 16 Nordeste 0 -- -- 83
2019-05-28 02:00:00 9.6 0 Calma 17 Nordeste 0 -- -- 79
2019-05-28 01:00:00 9.3 2 Nordeste 14 Nordeste 0 -- -- 79
2019-05-28 00:00:00 9.6 0 Calma 22 Nordeste 0 -- -- 80
2019-05-27 23:00:00 10.3 9 Nordeste 26 Nordeste 0 -- -- 81
2019-05-27 22:00:00 10.9 6 Nordeste 31 Nordeste 0 -- -- 79
2019-05-27 21:00:00 11.4 8 Nordeste 31 Nordeste 0 -- -- 77
2019-05-27 20:00:00 12.6 15 Nordeste 41 Nordeste 0 -- -- 69
2019-05-27 19:00:00 13.9 15 Nordeste 39 Nordeste 0 -- -- 65
2019-05-27 18:00:00 15.7 15 Nordeste 35 Nordeste 0 -- -- 64
2019-05-27 17:00:00 15.9 15 Nordeste 39 Este 0 -- -- 62
2019-05-27 16:00:00 18.6 10 Nordeste 31 Nordeste 0 -- -- 56
2019-05-27 15:00:00 16.5 13 Nordeste 32 Norte 0 -- -- 61
2019-05-27 14:00:00 17.7 12 Nordeste 35 Nordeste 0 -- -- 60
2019-05-27 13:00:00 17.7 16 Nordeste 35 Este 0 -- -- 57
2019-05-27 12:00:00 17.9 11 Nordeste 28 Nordeste 0 -- -- 56
2019-05-27 11:00:00 15.2 6 Este 20 Sudeste 0 -- -- 65
2019-05-27 10:00:00 13.2 6 Este 20 Este 0 -- -- 75
2019-05-27 09:00:00 11.1 5 Nordeste 15 Nordeste 0 -- -- 85
2019-05-27 08:00:00 10 3 Nordeste 8 Norte 0 -- -- 92
2019-05-27 07:00:00 9.2 2 Este 7 Este 0 -- -- 92
2019-05-27 06:00:00 8.4 0 Calma 7 Sudeste 0 -- -- 92
2019-05-27 05:00:00 8.4 2 Este 6 Nordeste 0 -- -- 92
2019-05-27 04:00:00 8.7 0 Calma 9 Nordeste 0 -- -- 90
2019-05-27 03:00:00 9.4 3 Nordeste 18 Nordeste 0 -- -- 88
2019-05-27 02:00:00 9.2 6 Nordeste 11 Nordeste 0 -- -- 89
2019-05-27 01:00:00 9.4 0 Calma 13 Este 0 -- -- 88
2019-05-27 00:00:00 10.2 0 Calma 12 Nordeste 0 -- -- 84
2019-05-26 23:00:00 10.8 5 Nordeste 17 Nordeste 0 -- -- 81
2019-05-26 22:00:00 11.6 4 Nordeste 18 Nordeste 0 -- -- 78
2019-05-26 21:00:00 12.3 7 Nordeste 24 Nordeste 0 -- -- 73
2019-05-26 20:00:00 13.4 8 Nordeste 24 Nordeste 0 -- -- 67
2019-05-26 19:00:00 13.8 9 Nordeste 30 Nordeste 0 -- -- 65
2019-05-26 18:00:00 15.4 9 Nordeste 31 Este 0 -- -- 58
2019-05-26 17:00:00 17 12 Nordeste 30 Nordeste 0 -- -- 54
2019-05-26 16:00:00 16.5 13 Nordeste 34 Nordeste 0 -- -- 54
2019-05-26 15:00:00 17 12 Nordeste 32 Nordeste 0 -- -- 56
2019-05-26 14:00:00 15.2 12 Nordeste 32 Nordeste 0 -- -- 56
2019-05-26 13:00:00 15.1 13 Nordeste 30 Norte 0 -- -- 58
2019-05-26 12:00:00 14.2 10 Nordeste 24 Este 0 -- -- 60
2019-05-26 11:00:00 14 12 Nordeste 26 Nordeste 0 -- -- 58
2019-05-26 10:00:00 12.1 6 Este 16 Este 0 -- -- 74
2019-05-26 09:00:00 10.5 0 Calma 4 Sudoeste 0 -- -- 86
2019-05-26 08:00:00 9.6 0 Calma 5 Nordeste 0 -- -- 92
2019-05-26 07:00:00 9.2 0 Calma 7 Nordeste 0 -- -- 93
2019-05-26 06:00:00 9 0 Calma 10 Nordeste 0 -- -- 93
2019-05-26 05:00:00 9 4 Nordeste 14 Norte 0 -- -- 93
2019-05-26 04:00:00 9.1 4 Nordeste 14 Nordeste 0 -- -- 92
2019-05-26 03:00:00 9.1 5 Nordeste 13 Nordeste 0 -- -- 91
2019-05-26 02:00:00 9.7 5 Nordeste 17 Nordeste 0 -- -- 83
2019-05-26 01:00:00 9.6 6 Nordeste 17 Nordeste 0 -- -- 83
2019-05-26 00:00:00 10 5 Nordeste 16 Nordeste 0 -- -- 75
2019-05-25 23:00:00 10.3 5 Nordeste 21 Nordeste 0 -- -- 75
2019-05-25 22:00:00 10.7 6 Nordeste 27 Nordeste 0 -- -- 71
2019-05-25 21:00:00 11.4 8 Nordeste 24 Nordeste 0 -- -- 66
2019-05-25 20:00:00 11.9 12 Nordeste 24 Nordeste 0 -- -- 64
2019-05-25 19:00:00 13.3 13 Nordeste 32 Nordeste 0 -- -- 58
2019-05-25 18:00:00 14.1 14 Nordeste 29 Norte 0 -- -- 56
2019-05-25 17:00:00 14 8 Nordeste 24 Nordeste 0 -- -- 58
2019-05-25 16:00:00 14.9 7 Norte 27 Nordeste 0 -- -- 53
2019-05-25 15:00:00 15.7 8 Norte 36 Norte 0 -- -- 56
2019-05-25 14:00:00 14.6 13 Nordeste 30 Nordeste 0 -- -- 57
2019-05-25 13:00:00 12.4 9 Nordeste 24 Nordeste 0 -- -- 67
2019-05-25 12:00:00 11.1 7 Nordeste 22 Nordeste 0 -- -- 76
2019-05-25 11:00:00 11.1 6 Norte 23 Nordeste 0 -- -- 71
2019-05-25 10:00:00 12.3 8 Nordeste 21 Nordeste 0 -- -- 69
2019-05-25 09:00:00 11.3 5 Nordeste 21 Norte 0 -- -- 72
2019-05-25 08:00:00 9.3 0 Calma 10 Nordeste 0 -- -- 80
2019-05-25 07:00:00 8.5 5 Nordeste 20 Nordeste 0 -- -- 85
2019-05-25 06:00:00 8.7 4 Este 19 Nordeste 0 -- -- 85
2019-05-25 05:00:00 9.2 6 Nordeste 17 Norte 0 -- -- 90
2019-05-25 04:00:00 9.2 4 Nordeste 17 Norte 0 -- -- 91
2019-05-25 03:00:00 8.8 2 Este 8 Sudeste 0 -- -- 88
2019-05-25 02:00:00 9.2 4 Este 11 Nordeste 0 -- -- 84
2019-05-25 01:00:00 9.8 4 Nordeste 27 Nordeste 0 -- -- 79
2019-05-25 00:00:00 10 6 Nordeste 22 Nordeste 0 -- -- 79
2019-05-24 23:00:00 10.1 8 Nordeste 22 Nordeste 0 -- -- 78
2019-05-24 22:00:00 10.4 2 Nordeste 19 Nordeste 0 -- -- 76
2019-05-24 21:00:00 10.6 6 Nordeste 20 Nordeste 0 -- -- 76
2019-05-24 20:00:00 10.9 4 Nordeste 24 Nordeste 0 -- -- 76
2019-05-24 19:00:00 12.2 5 Nordeste 22 Nordeste 0 -- -- 70
2019-05-24 18:00:00 12.3 7 Nordeste 30 Nordeste 0 -- -- 66
2019-05-24 17:00:00 13.4 10 Nordeste 28 Nordeste 0 -- -- 62
2019-05-24 16:00:00 12.5 6 Nordeste 29 Nordeste 0 -- -- 65
2019-05-24 15:00:00 13.7 14 Nordeste 34 Nordeste 0 -- -- 57
2019-05-24 14:00:00 14.2 9 Norte 40 Nordeste 0 -- -- 56
2019-05-24 13:00:00 15.7 14 Nordeste 37 Nordeste 0 -- -- 52
2019-05-24 12:00:00 14 9 Nordeste 37 Nordeste 0 -- -- 60
2019-05-24 11:00:00 14.2 0 Calma 31 Nordeste 0 -- -- 56
2019-05-24 10:00:00 10.5 9 Nordeste 23 Nordeste 0 -- -- 71
2019-05-24 09:00:00 10.2 7 Nordeste 16 Nordeste 0 -- -- 77
2019-05-24 08:00:00 7.1 3 Nordeste 9 Este 0 -- -- 88
2019-05-24 07:00:00 7.3 0 Calma 11 Nordeste 0 -- -- 85
2019-05-24 06:00:00 8.8 5 Nordeste 17 Nordeste 0 -- -- 79
2019-05-24 05:00:00 9.7 8 Nordeste 19 Nordeste 0 -- -- 77
2019-05-24 04:00:00 10.2 8 Nordeste 24 Nordeste 0 -- -- 78
2019-05-24 03:00:00 10.7 6 Nordeste 20 Nordeste 0 -- -- 79
2019-05-24 02:00:00 10.8 7 Nordeste 19 Nordeste 0 -- -- 80
2019-05-24 01:00:00 11 4 Nordeste 27 Nordeste 0 -- -- 79
2019-05-24 00:00:00 11 8 Nordeste 24 Norte 0 -- -- 79
2019-05-23 23:00:00 10.9 6 Nordeste 30 Este 0 -- -- 78
2019-05-23 22:00:00 11.5 12 Nordeste 32 Nordeste 0 -- -- 82
2019-05-23 21:00:00 12.1 11 Nordeste 34 Nordeste 0 -- -- 82
2019-05-23 20:00:00 13.1 10 Nordeste 31 Nordeste 0 -- -- 77
2019-05-23 19:00:00 13.8 12 Nordeste 30 Nordeste 0.4 -- -- 79
2019-05-23 18:00:00 15.9 12 Nordeste 25 Nordeste 0 -- -- 61
2019-05-23 17:00:00 18.2 10 Nordeste 24 Nordeste 0 -- -- 52
2019-05-23 16:00:00 16.9 11 Nordeste 27 Nordeste 0 -- -- 53
2019-05-23 15:00:00 19.2 9 Nordeste 27 Nordeste 0 -- -- 45
2019-05-23 14:00:00 21 9 Nordeste 21 Nordeste 0 -- -- 42
2019-05-23 13:00:00 19.3 8 Nordeste 19 Norte 0 -- -- 48
2019-05-23 12:00:00 19.4 6 Nordeste 12 Nordeste 0 -- -- 46
2019-05-23 11:00:00 15.8 0 Calma 6 Sudoeste 0 -- -- 56
2019-05-23 10:00:00 11.9 3 Sudoeste 5 Sudoeste 0 -- -- 76
2019-05-23 09:00:00 8.6 0 Calma 3 Sur 0 -- -- 89
2019-05-23 08:00:00 6.1 0 Calma 6 Nordeste 0 -- -- 95
2019-05-23 07:00:00 5.5 0 Calma -- -- 0 -- -- 94
2019-05-23 06:00:00 5.5 0 Calma -- -- 0 -- -- 93
2019-05-23 05:00:00 6.4 0 Calma -- -- 0 -- -- 92
2019-05-23 04:00:00 7.2 0 Calma -- -- 0 -- -- 92
2019-05-23 03:00:00 8 0 Calma 5 Nordeste 0 -- -- 91
2019-05-23 02:00:00 9.1 0 Calma 5 Noroeste 0 -- -- 88
2019-05-23 01:00:00 9.7 0 Calma 6 Noroeste 0 -- -- 84
2019-05-23 00:00:00 11.1 0 Calma 7 Nordeste 0 -- -- 79
2019-05-22 23:00:00 13.3 0 Calma 8 Nordeste 0 -- -- 65
2019-05-22 22:00:00 15.9 3 Nordeste 12 Este 0 -- -- 53
2019-05-22 21:00:00 18.2 9 Nordeste 21 Nordeste 0 -- -- 47
2019-05-22 20:00:00 20 9 Nordeste 26 Nordeste 0 -- -- 42
2019-05-22 19:00:00 22.4 8 Nordeste 25 Nordeste 0 -- -- 36
2019-05-22 18:00:00 24 10 Nordeste 22 Nordeste 0 -- -- 30
2019-05-22 17:00:00 25.2 2 Este 15 Sudoeste 0 -- -- 25
2019-05-22 16:00:00 24.1 6 Sudoeste 18 Sudoeste 0 -- -- 27
2019-05-22 15:00:00 23.3 7 Sudoeste 18 Sudoeste 0 -- -- 28
2019-05-22 14:00:00 21.9 5 Sudoeste 14 Sudoeste 0 -- -- 30
2019-05-22 13:00:00 21.4 0 Calma 9 Sudeste 0 -- -- 32
2019-05-22 12:00:00 17.3 4 Sudeste 9 Sudeste 0 -- -- 42
2019-05-22 11:00:00 11.6 0 Calma 6 Oeste 0 -- -- 65
2019-05-22 10:00:00 6.2 0 Calma 8 Oeste 0 -- -- 96
2019-05-22 09:00:00 5.2 0 Calma 5 Sudoeste 0 -- -- 96
2019-05-22 08:00:00 4 0 Calma -- -- 0 -- -- 96
2019-05-22 07:00:00 3.6 0 Calma -- -- 0 -- -- 96
2019-05-22 06:00:00 3.3 0 Calma 3 Noroeste 0 -- -- 95
2019-05-22 05:00:00 3.1 0 Calma -- -- 0 -- -- 94
2019-05-22 04:00:00 3.9 0 Calma -- -- 0 -- -- 93
2019-05-22 03:00:00 4.6 0 Calma 8 Noroeste 0 -- -- 93
2019-05-22 02:00:00 5.6 0 Calma 7 Noroeste 0 -- -- 92
2019-05-22 01:00:00 6.4 0 Calma 5 Noroeste 0 -- -- 90
2019-05-22 00:00:00 8 0 Calma 8 Nordeste 0 -- -- 88
2019-05-21 23:00:00 10.1 4 Nordeste 13 Este 0 -- -- 80
2019-05-21 22:00:00 11.5 3 Este 11 Este 0 -- -- 69
2019-05-21 21:00:00 13.1 6 Nordeste 21 Nordeste 0 -- -- 62
2019-05-21 20:00:00 15.6 10 Nordeste 27 Nordeste 0 -- -- 54
2019-05-21 19:00:00 17.1 12 Nordeste 31 Norte 0 -- -- 46
2019-05-21 18:00:00 18.7 12 Nordeste 28 Nordeste 0 -- -- 40
2019-05-21 17:00:00 19.8 10 Nordeste 26 Nordeste 0 -- -- 35
2019-05-21 16:00:00 20 8 Norte 23 Este 0 -- -- 30
2019-05-21 15:00:00 20.2 5 Nordeste 20 Este 0 -- -- 36
2019-05-21 14:00:00 18.7 8 Nordeste 19 Nordeste 0 -- -- 35
2019-05-21 13:00:00 17.9 7 Nordeste 15 Sudeste 0 -- -- 38
2019-05-21 12:00:00 16.1 6 Nordeste 16 Nordeste 0 -- -- 42
2019-05-21 11:00:00 10.7 2 Sur 8 Sudoeste 0 -- -- 72
2019-05-21 10:00:00 6.7 0 Calma 6 Sur 0 -- -- 94
2019-05-21 09:00:00 5 2 Sudoeste 5 Sudoeste 0 -- -- 96
2019-05-21 08:00:00 4.8 0 Calma -- -- 0 -- -- 96
2019-05-21 07:00:00 4.2 0 Calma 2 Norte 0 -- -- 96
2019-05-21 06:00:00 4.1 2 Norte 5 Noroeste 0 -- -- 96
2019-05-21 05:00:00 3.9 0 Calma 0 Calma 0 -- -- 95
2019-05-21 04:00:00 3.4 0 Calma 6 Noroeste 0 -- -- 93
2019-05-21 03:00:00 4.5 3 Norte 8 Noroeste 0 -- -- 93
2019-05-21 02:00:00 5.3 0 Calma -- -- 0 -- -- 92
2019-05-21 01:00:00 7.4 0 Calma 6 Este 0 -- -- 90
2019-05-21 00:00:00 9.2 0 Calma 12 Este 0 -- -- 85
2019-05-20 23:00:00 9.9 0 Calma 17 Este 0 -- -- 82
2019-05-20 22:00:00 10.7 5 Este 16 Este 0 -- -- 79
2019-05-20 21:00:00 11.6 5 Nordeste 21 Nordeste 0 -- -- 73
2019-05-20 20:00:00 13 9 Nordeste 28 Nordeste 0 -- -- 62
2019-05-20 19:00:00 15.5 12 Nordeste 26 Nordeste 0 -- -- 47
2019-05-20 18:00:00 17.4 6 Norte 24 Nordeste 0 -- -- 35
2019-05-20 17:00:00 18.7 3 Nordeste 17 Sudeste 0 -- -- 33
2019-05-20 16:00:00 18.3 8 Nordeste 23 Nordeste 0 -- -- 33
2019-05-20 15:00:00 17.5 6 Nordeste 17 Nordeste 0 -- -- 36
2019-05-20 14:00:00 16.6 2 Sur 16 Este 0 -- -- 37
2019-05-20 13:00:00 15.4 4 Sudeste 16 Sudeste 0 -- -- 41
2019-05-20 12:00:00 14.3 6 Nordeste 14 Nordeste 0 -- -- 43
2019-05-20 11:00:00 12.1 5 Nordeste 12 Nordeste 0 -- -- 52
2019-05-20 10:00:00 7.7 3 Este 6 Sudeste 0 -- -- 78
2019-05-20 09:00:00 3.4 0 Calma 4 Sudoeste 0 -- -- 96
2019-05-20 08:00:00 1.8 0 Calma 0 Calma 0 -- -- 96
2019-05-20 07:00:00 1.5 0 Calma 3 Nordeste 0 -- -- 96
2019-05-20 06:00:00 1.7 0 Calma 4 Oeste 0 -- -- 95
2019-05-20 05:00:00 1.9 0 Calma 6 Norte 0 -- -- 94
2019-05-20 04:00:00 2.7 0 Calma 6 Norte 0 -- -- 94
2019-05-20 03:00:00 4 0 Calma 0 Calma 0 -- -- 93
2019-05-20 02:00:00 4.2 0 Calma 8 Noroeste 0 -- -- 92
2019-05-20 01:00:00 3.7 2 Norte 7 Norte 0 -- -- 92
2019-05-20 00:00:00 4.6 0 Calma 8 Norte 0 -- -- 88
2019-05-19 23:00:00 6 0 Calma 4 Nordeste 0 -- -- 83
2019-05-19 22:00:00 7.8 2 Nordeste 18 Este 0 -- -- 73
2019-05-19 21:00:00 9 8 Nordeste 28 Nordeste 0 -- -- 66
2019-05-19 20:00:00 10.7 13 Nordeste 31 Nordeste 0 -- -- 61
2019-05-19 19:00:00 11.8 15 Nordeste 32 Nordeste 0 -- -- 58
2019-05-19 18:00:00 11.5 9 Nordeste 33 Nordeste 0.3 -- -- 61
2019-05-19 17:00:00 10.5 9 Nordeste 23 Nordeste 0.1 -- -- 63
2019-05-19 16:00:00 12.7 10 Nordeste 31 Nordeste 0 -- -- 52
2019-05-19 15:00:00 12.8 9 Nordeste 30 Nordeste 0 -- -- 52
2019-05-19 14:00:00 12.4 11 Nordeste 30 Nordeste 0 -- -- 50
2019-05-19 13:00:00 12.5 12 Nordeste 29 Nordeste 0 -- -- 52
2019-05-19 12:00:00 11 5 Noroeste 18 Oeste 0 -- -- 52
2019-05-19 11:00:00 10.2 7 Nordeste 19 Nordeste 0 -- -- 58
2019-05-19 10:00:00 9.2 4 Sudoeste 9 Sudoeste 0 -- -- 67
2019-05-19 09:00:00 6.3 0 Calma 6 Oeste 0 -- -- 90
2019-05-19 08:00:00 5.5 2 Sudoeste 6 Noroeste 0 -- -- 90
2019-05-19 07:00:00 5.3 0 Calma 3 Sudoeste 0 -- -- 88
2019-05-19 06:00:00 6.8 2 Sudoeste 5 Sudoeste 0 -- -- 85
2019-05-19 05:00:00 7.3 0 Calma 7 Oeste 0 -- -- 77
2019-05-19 04:00:00 7.9 2 Oeste 13 Noroeste 0 -- -- 71
2019-05-19 03:00:00 6.6 0 Calma 11 Noroeste 0 -- -- 84
2019-05-19 02:00:00 6.1 2 Oeste 6 Sudoeste 0 -- -- 88
2019-05-19 01:00:00 6.1 0 Calma 6 Noroeste 0 -- -- 84
2019-05-19 00:00:00 6 0 Calma 3 Nordeste 0 -- -- 82
2019-05-18 23:00:00 7.3 0 Calma -- -- 0 -- -- 76
2019-05-18 22:00:00 8.1 0 Calma 8 Este 0 -- -- 71
2019-05-18 21:00:00 8.9 3 Este 9 Este 0.1 -- -- 69
2019-05-18 20:00:00 9 5 Nordeste 17 Nordeste 0 -- -- 70
2019-05-18 19:00:00 10.3 4 Nordeste 18 Nordeste 0 -- -- 61
2019-05-18 18:00:00 10.6 6 Nordeste 23 Este 0 -- -- 61
2019-05-18 17:00:00 11.2 9 Nordeste 21 Nordeste 0.2 -- -- 73
2019-05-18 16:00:00 9.5 7 Nordeste 22 Nordeste 0.2 -- -- 81
2019-05-18 15:00:00 10.5 4 Nordeste 16 Nordeste 0 -- -- 66
2019-05-18 14:00:00 9.2 11 Nordeste 18 Nordeste 0 -- -- 66
2019-05-18 13:00:00 11.7 5 Este 13 Este 0 -- -- 55
2019-05-18 12:00:00 9.7 4 Este 15 Nordeste 0 -- -- 60
2019-05-18 11:00:00 9.5 0 Calma 9 Sudoeste 0 -- -- 62
2019-05-18 10:00:00 5.5 5 Sudoeste 11 Sudoeste 0 -- -- 82
2019-05-18 09:00:00 2.8 6 Sudoeste 10 Sudoeste 0 -- -- 96
2019-05-18 08:00:00 1.4 4 Sudoeste 10 Sudoeste 0 -- -- 96
2019-05-18 07:00:00 1 0 Calma 6 Nordeste 0 -- -- 96
2019-05-18 06:00:00 1 0 Calma 3 Sudoeste 0 -- -- 94
2019-05-18 05:00:00 2.4 3 Oeste 5 Sudoeste 0 -- -- 94
2019-05-18 04:00:00 2.2 0 Calma 6 Norte 0 -- -- 94
2019-05-18 03:00:00 1.2 2 Norte 8 Noroeste 0 -- -- 92
2019-05-18 02:00:00 1.9 4 Noroeste 9 Noroeste 0 -- -- 92
2019-05-18 01:00:00 3.3 2 Noroeste 9 Noroeste 0 -- -- 88
2019-05-18 00:00:00 4.5 0 Calma 4 Nordeste 0 -- -- 82
2019-05-17 23:00:00 7.1 2 Este 12 Nordeste 0 -- -- 69
2019-05-17 22:00:00 7.6 3 Nordeste 15 Este 0 -- -- 66
2019-05-17 21:00:00 8.4 6 Nordeste 23 Nordeste 0 -- -- 63
2019-05-17 20:00:00 9.8 9 Nordeste 24 Nordeste 0 -- -- 57
2019-05-17 19:00:00 10.6 0 Calma 19 Nordeste 0 -- -- 61
2019-05-17 18:00:00 10.9 3 Noroeste 25 Norte 0 -- -- 57
2019-05-17 17:00:00 11.5 8 Norte 28 Nordeste 0 -- -- 53
2019-05-17 16:00:00 10.9 11 Nordeste 28 Nordeste 0 -- -- 61
2019-05-17 15:00:00 10.8 5 Nordeste 24 Nordeste 0 -- -- 60
2019-05-17 14:00:00 10.4 7 Norte 27 Nordeste 0 -- -- 59
2019-05-17 13:00:00 9.5 4 Norte 19 Noroeste 0 -- -- 62
2019-05-17 12:00:00 9.5 5 Noroeste 20 Oeste 0 -- -- 61
2019-05-17 11:00:00 9 2 Noroeste 25 Sudoeste 0 -- -- 66
2019-05-17 10:00:00 8.2 6 Oeste 20 Oeste 0 -- -- 72
2019-05-17 09:00:00 7.6 5 Noroeste 36 Norte 0 -- -- 75
2019-05-17 08:00:00 6.9 10 Noroeste 35 Noroeste 0 -- -- 75
2019-05-17 07:00:00 7.7 0 Calma 6 Sudoeste 0.1 -- -- 95
2019-05-17 06:00:00 7.5 0 Calma -- -- 0 -- -- 95
2019-05-17 05:00:00 7.7 0 Calma -- -- 0 -- -- 95
2019-05-17 04:00:00 7.7 0 Calma 5 Sudeste 0 -- -- 95
2019-05-17 03:00:00 7.8 0 Calma 10 Sudoeste 0.4 -- -- 95
2019-05-17 02:00:00 7.8 0 Calma 7 Sudoeste 0.3 -- -- 95
2019-05-17 01:00:00 7.7 4 Sudoeste 6 Sudoeste 1.6 -- -- 95
2019-05-17 00:00:00 7.7 4 Sudoeste 15 Nordeste 4.8 -- -- 95